sensor_id;sensor_type;location;lat;lon;timestamp;temperature;humidity
42245;DHT22;27912;51.828;5.688;2024-03-02T00:00:26;8.30;99.90
42245;DHT22;27912;51.828;5.688;2024-03-02T00:02:53;8.30;99.90
42245;DHT22;27912;51.828;5.688;2024-03-02T00:05:21;8.30;99.90
42245;DHT22;27912;51.828;5.688;2024-03-02T00:07:55;8.30;99.90
42245;DHT22;27912;51.828;5.688;2024-03-02T00:10:27;8.30;99.90
42245;DHT22;27912;51.828;5.688;2024-03-02T00:12:57;8.20;99.90
42245;DHT22;27912;51.828;5.688;2024-03-02T00:15:47;8.20;99.90
42245;DHT22;27912;51.828;5.688;2024-03-02T00:18:25;8.20;99.90
42245;DHT22;27912;51.828;5.688;2024-03-02T00:20:55;8.20;99.90
42245;DHT22;27912;51.828;5.688;2024-03-02T00:23:25;8.20;99.90
42245;DHT22;27912;51.828;5.688;2024-03-02T00:25:53;8.30;99.90
42245;DHT22;27912;51.828;5.688;2024-03-02T00:28:24;8.30;99.90
42245;DHT22;27912;51.828;5.688;2024-03-02T00:31:02;8.30;99.90
42245;DHT22;27912;51.828;5.688;2024-03-02T00:33:34;8.40;99.90
42245;DHT22;27912;51.828;5.688;2024-03-02T00:36:00;8.50;99.90
42245;DHT22;27912;51.828;5.688;2024-03-02T00:38:27;8.50;99.90
42245;DHT22;27912;51.828;5.688;2024-03-02T00:40:54;8.50;99.90
42245;DHT22;27912;51.828;5.688;2024-03-02T00:46:03;8.60;99.90
42245;DHT22;27912;51.828;5.688;2024-03-02T00:48:29;8.60;99.90
42245;DHT22;27912;51.828;5.688;2024-03-02T00:50:56;8.70;99.90
42245;DHT22;27912;51.828;5.688;2024-03-02T00:53:24;8.70;99.90
42245;DHT22;27912;51.828;5.688;2024-03-02T00:55:52;8.70;99.90
42245;DHT22;27912;51.828;5.688;2024-03-02T00:58:18;8.70;99.90
42245;DHT22;27912;51.828;5.688;2024-03-02T01:00:44;8.70;99.90
42245;DHT22;27912;51.828;5.688;2024-03-02T01:03:09;8.60;99.90
42245;DHT22;27912;51.828;5.688;2024-03-02T01:05:36;8.60;99.90
42245;DHT22;27912;51.828;5.688;2024-03-02T01:08:02;8.50;99.90
42245;DHT22;27912;51.828;5.688;2024-03-02T01:10:28;8.50;99.90
42245;DHT22;27912;51.828;5.688;2024-03-02T01:12:53;8.40;99.90
42245;DHT22;27912;51.828;5.688;2024-03-02T01:15:19;8.40;99.90
42245;DHT22;27912;51.828;5.688;2024-03-02T01:17:45;8.40;99.90
42245;DHT22;27912;51.828;5.688;2024-03-02T01:20:11;8.40;99.90
42245;DHT22;27912;51.828;5.688;2024-03-02T01:22:36;8.40;99.90
42245;DHT22;27912;51.828;5.688;2024-03-02T01:25:03;8.40;99.90
42245;DHT22;27912;51.828;5.688;2024-03-02T01:27:28;8.40;99.90
42245;DHT22;27912;51.828;5.688;2024-03-02T01:29:54;8.30;99.90
42245;DHT22;27912;51.828;5.688;2024-03-02T01:32:20;8.30;99.90
42245;DHT22;27912;51.828;5.688;2024-03-02T01:34:45;8.30;99.90
42245;DHT22;27912;51.828;5.688;2024-03-02T01:37:11;8.30;99.90
42245;DHT22;27912;51.828;5.688;2024-03-02T01:39:37;8.20;99.90
42245;DHT22;27912;51.828;5.688;2024-03-02T01:42:02;8.20;99.90
42245;DHT22;27912;51.828;5.688;2024-03-02T01:44:28;8.10;99.90
42245;DHT22;27912;51.828;5.688;2024-03-02T01:46:54;8.10;99.90
42245;DHT22;27912;51.828;5.688;2024-03-02T01:49:19;8.00;99.90
42245;DHT22;27912;51.828;5.688;2024-03-02T01:51:45;8.00;99.90
42245;DHT22;27912;51.828;5.688;2024-03-02T01:54:11;8.00;99.90
42245;DHT22;27912;51.828;5.688;2024-03-02T01:56:37;8.00;99.90
42245;DHT22;27912;51.828;5.688;2024-03-02T01:59:02;7.90;99.90
42245;DHT22;27912;51.828;5.688;2024-03-02T02:01:28;7.90;99.90
42245;DHT22;27912;51.828;5.688;2024-03-02T02:03:54;7.90;99.90
42245;DHT22;27912;51.828;5.688;2024-03-02T02:06:20;7.90;99.90
42245;DHT22;27912;51.828;5.688;2024-03-02T02:08:46;7.90;99.90
42245;DHT22;27912;51.828;5.688;2024-03-02T02:11:15;7.90;99.90
42245;DHT22;27912;51.828;5.688;2024-03-02T02:13:40;7.90;99.90
42245;DHT22;27912;51.828;5.688;2024-03-02T02:16:09;7.90;99.90
42245;DHT22;27912;51.828;5.688;2024-03-02T02:18:35;7.90;99.90
42245;DHT22;27912;51.828;5.688;2024-03-02T02:21:02;7.80;99.90
42245;DHT22;27912;51.828;5.688;2024-03-02T02:23:27;7.80;99.90
42245;DHT22;27912;51.828;5.688;2024-03-02T02:25:53;7.80;99.90
42245;DHT22;27912;51.828;5.688;2024-03-02T02:28:18;7.80;99.90
42245;DHT22;27912;51.828;5.688;2024-03-02T02:30:44;7.80;99.90
42245;DHT22;27912;51.828;5.688;2024-03-02T02:33:09;7.80;99.90
42245;DHT22;27912;51.828;5.688;2024-03-02T02:35:35;7.80;99.90
42245;DHT22;27912;51.828;5.688;2024-03-02T02:38:01;7.80;99.90
42245;DHT22;27912;51.828;5.688;2024-03-02T02:40:27;7.80;99.90
42245;DHT22;27912;51.828;5.688;2024-03-02T02:42:56;7.80;99.90
42245;DHT22;27912;51.828;5.688;2024-03-02T02:45:22;7.80;99.90
42245;DHT22;27912;51.828;5.688;2024-03-02T02:47:47;7.80;99.90
42245;DHT22;27912;51.828;5.688;2024-03-02T02:50:13;7.70;99.90
42245;DHT22;27912;51.828;5.688;2024-03-02T02:52:40;7.70;99.90
42245;DHT22;27912;51.828;5.688;2024-03-02T02:55:10;7.70;99.90
42245;DHT22;27912;51.828;5.688;2024-03-02T02:57:38;7.70;99.90
42245;DHT22;27912;51.828;5.688;2024-03-02T03:00:12;7.60;99.90
42245;DHT22;27912;51.828;5.688;2024-03-02T03:02:41;7.60;99.90
42245;DHT22;27912;51.828;5.688;2024-03-02T03:05:08;7.60;99.90
42245;DHT22;27912;51.828;5.688;2024-03-02T03:07:34;7.60;99.90
42245;DHT22;27912;51.828;5.688;2024-03-02T03:10:00;7.60;99.90
42245;DHT22;27912;51.828;5.688;2024-03-02T03:12:26;7.60;99.90
42245;DHT22;27912;51.828;5.688;2024-03-02T03:14:52;7.50;99.90
42245;DHT22;27912;51.828;5.688;2024-03-02T03:17:18;7.50;99.90
42245;DHT22;27912;51.828;5.688;2024-03-02T03:19:43;7.50;99.90
42245;DHT22;27912;51.828;5.688;2024-03-02T03:22:09;7.50;99.90
42245;DHT22;27912;51.828;5.688;2024-03-02T03:24:35;7.50;99.90
42245;DHT22;27912;51.828;5.688;2024-03-02T03:27:00;7.50;99.90
42245;DHT22;27912;51.828;5.688;2024-03-02T03:29:26;7.50;99.90
42245;DHT22;27912;51.828;5.688;2024-03-02T03:31:51;7.50;99.90
42245;DHT22;27912;51.828;5.688;2024-03-02T03:34:17;7.50;99.90
42245;DHT22;27912;51.828;5.688;2024-03-02T03:36:43;7.50;99.90
42245;DHT22;27912;51.828;5.688;2024-03-02T03:39:08;7.50;99.90
42245;DHT22;27912;51.828;5.688;2024-03-02T03:41:34;7.50;99.90
42245;DHT22;27912;51.828;5.688;2024-03-02T03:43:59;7.50;99.90
42245;DHT22;27912;51.828;5.688;2024-03-02T03:46:25;7.50;99.90
42245;DHT22;27912;51.828;5.688;2024-03-02T03:48:51;7.50;99.90
42245;DHT22;27912;51.828;5.688;2024-03-02T03:51:16;7.50;99.90
42245;DHT22;27912;51.828;5.688;2024-03-02T03:53:42;7.50;99.90
42245;DHT22;27912;51.828;5.688;2024-03-02T03:56:07;7.50;99.90
42245;DHT22;27912;51.828;5.688;2024-03-02T03:58:33;7.50;99.90
42245;DHT22;27912;51.828;5.688;2024-03-02T04:00:58;7.50;99.90
42245;DHT22;27912;51.828;5.688;2024-03-02T04:03:24;7.50;99.90
42245;DHT22;27912;51.828;5.688;2024-03-02T04:05:50;7.50;99.90
42245;DHT22;27912;51.828;5.688;2024-03-02T04:08:16;7.50;99.90
42245;DHT22;27912;51.828;5.688;2024-03-02T04:10:42;7.50;99.90
42245;DHT22;27912;51.828;5.688;2024-03-02T04:13:07;7.50;99.90
42245;DHT22;27912;51.828;5.688;2024-03-02T04:15:33;7.50;99.90
42245;DHT22;27912;51.828;5.688;2024-03-02T04:17:59;7.50;99.90
42245;DHT22;27912;51.828;5.688;2024-03-02T04:20:24;7.50;99.90
42245;DHT22;27912;51.828;5.688;2024-03-02T04:22:50;7.40;99.90
42245;DHT22;27912;51.828;5.688;2024-03-02T04:25:16;7.40;99.90
42245;DHT22;27912;51.828;5.688;2024-03-02T04:27:42;7.40;99.90
42245;DHT22;27912;51.828;5.688;2024-03-02T04:30:07;7.40;99.90
42245;DHT22;27912;51.828;5.688;2024-03-02T04:32:33;7.40;99.90
42245;DHT22;27912;51.828;5.688;2024-03-02T04:34:59;7.40;99.90
42245;DHT22;27912;51.828;5.688;2024-03-02T04:37:25;7.40;99.90
42245;DHT22;27912;51.828;5.688;2024-03-02T04:39:50;7.40;99.90
42245;DHT22;27912;51.828;5.688;2024-03-02T04:42:16;7.40;99.90
42245;DHT22;27912;51.828;5.688;2024-03-02T04:44:41;7.40;99.90
42245;DHT22;27912;51.828;5.688;2024-03-02T04:47:07;7.40;99.90
42245;DHT22;27912;51.828;5.688;2024-03-02T04:49:33;7.40;99.90
42245;DHT22;27912;51.828;5.688;2024-03-02T04:51:58;7.40;99.90
42245;DHT22;27912;51.828;5.688;2024-03-02T04:54:24;7.40;99.90
42245;DHT22;27912;51.828;5.688;2024-03-02T04:56:49;7.40;99.90
42245;DHT22;27912;51.828;5.688;2024-03-02T04:59:16;7.30;99.90
42245;DHT22;27912;51.828;5.688;2024-03-02T05:01:42;7.30;99.90
42245;DHT22;27912;51.828;5.688;2024-03-02T05:04:08;7.20;99.90
42245;DHT22;27912;51.828;5.688;2024-03-02T05:06:39;7.10;99.90
42245;DHT22;27912;51.828;5.688;2024-03-02T05:09:08;7.00;99.90
42245;DHT22;27912;51.828;5.688;2024-03-02T05:11:35;7.00;99.90
42245;DHT22;27912;51.828;5.688;2024-03-02T05:14:04;7.00;99.90
42245;DHT22;27912;51.828;5.688;2024-03-02T05:16:33;6.90;99.90
42245;DHT22;27912;51.828;5.688;2024-03-02T05:18:59;6.90;99.90
42245;DHT22;27912;51.828;5.688;2024-03-02T05:21:24;6.80;99.90
42245;DHT22;27912;51.828;5.688;2024-03-02T05:23:50;6.80;99.90
42245;DHT22;27912;51.828;5.688;2024-03-02T05:26:15;6.70;99.90
42245;DHT22;27912;51.828;5.688;2024-03-02T05:28:42;6.70;99.90
42245;DHT22;27912;51.828;5.688;2024-03-02T05:31:10;6.60;99.90
42245;DHT22;27912;51.828;5.688;2024-03-02T05:33:38;6.70;99.90
42245;DHT22;27912;51.828;5.688;2024-03-02T05:36:04;6.70;99.90
42245;DHT22;27912;51.828;5.688;2024-03-02T05:38:30;6.80;99.90
42245;DHT22;27912;51.828;5.688;2024-03-02T05:40:55;6.90;99.90
42245;DHT22;27912;51.828;5.688;2024-03-02T05:43:21;6.90;99.90
42245;DHT22;27912;51.828;5.688;2024-03-02T05:45:46;7.00;99.90
42245;DHT22;27912;51.828;5.688;2024-03-02T05:48:12;7.00;99.90
42245;DHT22;27912;51.828;5.688;2024-03-02T05:50:38;7.10;99.90
42245;DHT22;27912;51.828;5.688;2024-03-02T05:53:04;7.10;99.90
42245;DHT22;27912;51.828;5.688;2024-03-02T05:55:29;7.10;99.90
42245;DHT22;27912;51.828;5.688;2024-03-02T05:57:55;7.00;99.90
42245;DHT22;27912;51.828;5.688;2024-03-02T06:00:37;7.00;99.90
42245;DHT22;27912;51.828;5.688;2024-03-02T06:03:02;6.90;99.90
42245;DHT22;27912;51.828;5.688;2024-03-02T06:05:28;6.90;99.90
42245;DHT22;27912;51.828;5.688;2024-03-02T06:07:54;6.90;99.90
42245;DHT22;27912;51.828;5.688;2024-03-02T06:10:20;6.80;99.90
42245;DHT22;27912;51.828;5.688;2024-03-02T06:12:46;6.80;99.90
42245;DHT22;27912;51.828;5.688;2024-03-02T06:15:11;6.80;99.90
42245;DHT22;27912;51.828;5.688;2024-03-02T06:17:37;6.90;99.90
42245;DHT22;27912;51.828;5.688;2024-03-02T06:20:03;6.90;99.90
42245;DHT22;27912;51.828;5.688;2024-03-02T06:22:28;6.90;99.90
42245;DHT22;27912;51.828;5.688;2024-03-02T06:24:54;6.90;99.90
42245;DHT22;27912;51.828;5.688;2024-03-02T06:27:20;7.00;99.90
42245;DHT22;27912;51.828;5.688;2024-03-02T06:29:45;7.00;99.90
42245;DHT22;27912;51.828;5.688;2024-03-02T06:32:11;7.00;99.90
42245;DHT22;27912;51.828;5.688;2024-03-02T06:34:37;7.00;99.90
42245;DHT22;27912;51.828;5.688;2024-03-02T06:37:02;7.00;99.90
42245;DHT22;27912;51.828;5.688;2024-03-02T06:39:28;7.00;99.90
42245;DHT22;27912;51.828;5.688;2024-03-02T06:41:54;7.00;99.90
42245;DHT22;27912;51.828;5.688;2024-03-02T06:44:20;6.90;99.90
42245;DHT22;27912;51.828;5.688;2024-03-02T06:46:46;6.90;99.90
42245;DHT22;27912;51.828;5.688;2024-03-02T06:49:12;6.80;99.90
42245;DHT22;27912;51.828;5.688;2024-03-02T06:51:37;6.80;99.90
42245;DHT22;27912;51.828;5.688;2024-03-02T06:54:03;6.70;99.90
42245;DHT22;27912;51.828;5.688;2024-03-02T06:56:28;6.70;99.90
42245;DHT22;27912;51.828;5.688;2024-03-02T06:58:54;6.70;99.90
42245;DHT22;27912;51.828;5.688;2024-03-02T07:01:20;6.60;99.90
42245;DHT22;27912;51.828;5.688;2024-03-02T07:03:45;6.60;99.90
42245;DHT22;27912;51.828;5.688;2024-03-02T07:06:11;6.60;99.90
42245;DHT22;27912;51.828;5.688;2024-03-02T07:08:37;6.60;99.90
42245;DHT22;27912;51.828;5.688;2024-03-02T07:11:02;6.60;99.90
42245;DHT22;27912;51.828;5.688;2024-03-02T07:13:28;6.60;99.90
42245;DHT22;27912;51.828;5.688;2024-03-02T07:15:53;6.60;99.90
42245;DHT22;27912;51.828;5.688;2024-03-02T07:18:29;6.60;99.90
42245;DHT22;27912;51.828;5.688;2024-03-02T07:20:54;6.60;99.90
42245;DHT22;27912;51.828;5.688;2024-03-02T07:23:21;6.60;99.90
42245;DHT22;27912;51.828;5.688;2024-03-02T07:25:49;6.70;99.90
42245;DHT22;27912;51.828;5.688;2024-03-02T07:28:15;6.70;99.90
42245;DHT22;27912;51.828;5.688;2024-03-02T07:30:41;6.70;99.90
42245;DHT22;27912;51.828;5.688;2024-03-02T07:33:06;6.80;99.90
42245;DHT22;27912;51.828;5.688;2024-03-02T07:35:32;6.80;99.90
42245;DHT22;27912;51.828;5.688;2024-03-02T07:37:58;6.90;99.90
42245;DHT22;27912;51.828;5.688;2024-03-02T07:40:24;7.10;99.90
42245;DHT22;27912;51.828;5.688;2024-03-02T07:42:49;7.10;99.90
42245;DHT22;27912;51.828;5.688;2024-03-02T07:45:15;7.30;99.90
42245;DHT22;27912;51.828;5.688;2024-03-02T07:47:41;7.40;99.90
42245;DHT22;27912;51.828;5.688;2024-03-02T07:50:06;7.50;99.90
42245;DHT22;27912;51.828;5.688;2024-03-02T07:52:32;7.60;99.90
42245;DHT22;27912;51.828;5.688;2024-03-02T07:54:58;7.80;99.90
42245;DHT22;27912;51.828;5.688;2024-03-02T07:57:24;7.90;99.90
42245;DHT22;27912;51.828;5.688;2024-03-02T07:59:51;8.00;99.90
42245;DHT22;27912;51.828;5.688;2024-03-02T08:02:16;8.10;99.90
42245;DHT22;27912;51.828;5.688;2024-03-02T08:04:42;8.10;99.90
42245;DHT22;27912;51.828;5.688;2024-03-02T08:07:07;8.20;99.90
42245;DHT22;27912;51.828;5.688;2024-03-02T08:09:34;8.20;99.90
42245;DHT22;27912;51.828;5.688;2024-03-02T08:12:00;8.20;99.90
42245;DHT22;27912;51.828;5.688;2024-03-02T08:14:25;8.20;99.90
42245;DHT22;27912;51.828;5.688;2024-03-02T08:16:51;8.30;99.90
42245;DHT22;27912;51.828;5.688;2024-03-02T08:19:17;8.20;99.90
42245;DHT22;27912;51.828;5.688;2024-03-02T08:21:43;8.20;99.90
42245;DHT22;27912;51.828;5.688;2024-03-02T08:24:09;8.20;99.90
42245;DHT22;27912;51.828;5.688;2024-03-02T08:26:34;8.20;99.90
42245;DHT22;27912;51.828;5.688;2024-03-02T08:29:01;8.20;99.90
42245;DHT22;27912;51.828;5.688;2024-03-02T08:31:30;8.20;99.90
42245;DHT22;27912;51.828;5.688;2024-03-02T08:33:55;8.20;99.90
42245;DHT22;27912;51.828;5.688;2024-03-02T08:36:22;8.10;99.90
42245;DHT22;27912;51.828;5.688;2024-03-02T08:38:49;8.10;99.90
42245;DHT22;27912;51.828;5.688;2024-03-02T08:41:15;8.10;99.90
42245;DHT22;27912;51.828;5.688;2024-03-02T08:43:41;8.00;99.90
42245;DHT22;27912;51.828;5.688;2024-03-02T08:46:07;8.10;99.90
42245;DHT22;27912;51.828;5.688;2024-03-02T08:48:33;8.10;99.90
42245;DHT22;27912;51.828;5.688;2024-03-02T08:50:58;8.10;99.90
42245;DHT22;27912;51.828;5.688;2024-03-02T08:53:24;8.10;99.90
42245;DHT22;27912;51.828;5.688;2024-03-02T08:55:50;8.20;99.90
42245;DHT22;27912;51.828;5.688;2024-03-02T08:58:15;8.20;99.90
42245;DHT22;27912;51.828;5.688;2024-03-02T09:00:41;8.30;99.90
42245;DHT22;27912;51.828;5.688;2024-03-02T09:03:07;8.30;99.90
42245;DHT22;27912;51.828;5.688;2024-03-02T09:05:33;8.30;99.90
42245;DHT22;27912;51.828;5.688;2024-03-02T09:07:58;8.30;99.90
42245;DHT22;27912;51.828;5.688;2024-03-02T09:10:24;8.40;99.90
42245;DHT22;27912;51.828;5.688;2024-03-02T09:12:50;8.50;99.90
42245;DHT22;27912;51.828;5.688;2024-03-02T09:15:15;8.60;99.90
42245;DHT22;27912;51.828;5.688;2024-03-02T09:17:41;8.70;99.90
42245;DHT22;27912;51.828;5.688;2024-03-02T09:20:07;8.80;99.90
42245;DHT22;27912;51.828;5.688;2024-03-02T09:22:33;8.90;99.90
42245;DHT22;27912;51.828;5.688;2024-03-02T09:24:58;9.00;99.90
42245;DHT22;27912;51.828;5.688;2024-03-02T09:27:24;9.10;99.90
42245;DHT22;27912;51.828;5.688;2024-03-02T09:29:50;9.20;99.90
42245;DHT22;27912;51.828;5.688;2024-03-02T09:32:15;9.30;99.90
42245;DHT22;27912;51.828;5.688;2024-03-02T09:34:41;9.40;99.90
42245;DHT22;27912;51.828;5.688;2024-03-02T09:37:07;9.40;99.90
42245;DHT22;27912;51.828;5.688;2024-03-02T09:39:33;9.40;99.90
42245;DHT22;27912;51.828;5.688;2024-03-02T09:42:02;9.50;99.90
42245;DHT22;27912;51.828;5.688;2024-03-02T09:44:30;9.60;99.90
42245;DHT22;27912;51.828;5.688;2024-03-02T09:46:55;9.60;99.90
42245;DHT22;27912;51.828;5.688;2024-03-02T09:49:22;9.70;99.90
42245;DHT22;27912;51.828;5.688;2024-03-02T09:51:48;9.70;99.90
42245;DHT22;27912;51.828;5.688;2024-03-02T09:54:15;9.80;99.90
42245;DHT22;27912;51.828;5.688;2024-03-02T09:56:41;9.80;99.90
42245;DHT22;27912;51.828;5.688;2024-03-02T09:59:07;9.80;99.90
42245;DHT22;27912;51.828;5.688;2024-03-02T10:01:33;9.90;99.90
42245;DHT22;27912;51.828;5.688;2024-03-02T10:04:01;10.00;99.90
42245;DHT22;27912;51.828;5.688;2024-03-02T10:06:30;10.00;99.90
42245;DHT22;27912;51.828;5.688;2024-03-02T10:08:56;10.10;99.90
42245;DHT22;27912;51.828;5.688;2024-03-02T10:11:31;10.10;99.90
42245;DHT22;27912;51.828;5.688;2024-03-02T10:14:24;10.20;99.90
42245;DHT22;27912;51.828;5.688;2024-03-02T10:16:50;10.20;99.90
42245;DHT22;27912;51.828;5.688;2024-03-02T10:19:22;10.20;99.90
42245;DHT22;27912;51.828;5.688;2024-03-02T10:21:53;10.20;99.90
42245;DHT22;27912;51.828;5.688;2024-03-02T10:24:20;10.30;99.90
42245;DHT22;27912;51.828;5.688;2024-03-02T10:26:46;10.30;99.90
42245;DHT22;27912;51.828;5.688;2024-03-02T10:29:12;10.30;99.90
42245;DHT22;27912;51.828;5.688;2024-03-02T10:31:39;10.50;99.90
42245;DHT22;27912;51.828;5.688;2024-03-02T10:34:05;10.50;99.90
42245;DHT22;27912;51.828;5.688;2024-03-02T10:36:35;10.60;99.90
42245;DHT22;27912;51.828;5.688;2024-03-02T10:39:05;10.60;99.90
42245;DHT22;27912;51.828;5.688;2024-03-02T10:41:33;10.70;99.90
42245;DHT22;27912;51.828;5.688;2024-03-02T10:44:05;10.70;99.90
42245;DHT22;27912;51.828;5.688;2024-03-02T10:46:32;10.70;99.90
42245;DHT22;27912;51.828;5.688;2024-03-02T10:48:59;10.80;99.90
42245;DHT22;27912;51.828;5.688;2024-03-02T10:51:30;10.80;99.90
42245;DHT22;27912;51.828;5.688;2024-03-02T10:54:00;10.90;99.90
42245;DHT22;27912;51.828;5.688;2024-03-02T10:56:44;10.90;99.90
42245;DHT22;27912;51.828;5.688;2024-03-02T10:59:27;11.00;99.90
42245;DHT22;27912;51.828;5.688;2024-03-02T11:02:00;11.10;99.90
42245;DHT22;27912;51.828;5.688;2024-03-02T11:04:29;11.10;99.90
42245;DHT22;27912;51.828;5.688;2024-03-02T11:07:02;11.20;99.90
42245;DHT22;27912;51.828;5.688;2024-03-02T11:09:30;11.20;99.90
42245;DHT22;27912;51.828;5.688;2024-03-02T11:12:22;11.20;99.90
42245;DHT22;27912;51.828;5.688;2024-03-02T11:14:48;11.30;99.90
42245;DHT22;27912;51.828;5.688;2024-03-02T11:17:16;11.30;99.90
42245;DHT22;27912;51.828;5.688;2024-03-02T11:19:43;11.30;99.90
42245;DHT22;27912;51.828;5.688;2024-03-02T11:22:09;11.30;99.90
42245;DHT22;27912;51.828;5.688;2024-03-02T11:24:35;11.30;99.90
42245;DHT22;27912;51.828;5.688;2024-03-02T11:27:02;11.40;99.90
42245;DHT22;27912;51.828;5.688;2024-03-02T11:32:14;11.50;99.90
42245;DHT22;27912;51.828;5.688;2024-03-02T11:34:41;11.60;99.90
42245;DHT22;27912;51.828;5.688;2024-03-02T11:37:18;11.70;99.90
42245;DHT22;27912;51.828;5.688;2024-03-02T11:39:46;11.60;99.90
42245;DHT22;27912;51.828;5.688;2024-03-02T11:42:12;11.70;99.90
42245;DHT22;27912;51.828;5.688;2024-03-02T11:44:41;11.70;99.90
42245;DHT22;27912;51.828;5.688;2024-03-02T11:47:09;11.80;99.90
42245;DHT22;27912;51.828;5.688;2024-03-02T11:49:43;11.80;99.90
42245;DHT22;27912;51.828;5.688;2024-03-02T11:52:14;11.80;99.90
42245;DHT22;27912;51.828;5.688;2024-03-02T11:54:43;11.90;99.90
42245;DHT22;27912;51.828;5.688;2024-03-02T11:57:16;12.00;99.90
42245;DHT22;27912;51.828;5.688;2024-03-02T11:59:43;12.10;99.90
42245;DHT22;27912;51.828;5.688;2024-03-02T12:02:29;12.10;99.90
42245;DHT22;27912;51.828;5.688;2024-03-02T12:04:54;12.20;99.90
42245;DHT22;27912;51.828;5.688;2024-03-02T12:07:24;12.20;99.90
42245;DHT22;27912;51.828;5.688;2024-03-02T12:10:00;12.30;99.90
42245;DHT22;27912;51.828;5.688;2024-03-02T12:12:26;12.30;99.90
42245;DHT22;27912;51.828;5.688;2024-03-02T12:14:53;12.40;99.90
42245;DHT22;27912;51.828;5.688;2024-03-02T12:17:21;12.40;99.90
42245;DHT22;27912;51.828;5.688;2024-03-02T12:19:47;12.50;99.90
42245;DHT22;27912;51.828;5.688;2024-03-02T12:22:12;12.60;99.90
42245;DHT22;27912;51.828;5.688;2024-03-02T12:24:38;12.60;99.90
42245;DHT22;27912;51.828;5.688;2024-03-02T12:27:05;12.70;99.90
42245;DHT22;27912;51.828;5.688;2024-03-02T12:29:31;12.70;99.90
42245;DHT22;27912;51.828;5.688;2024-03-02T12:31:57;12.80;99.90
42245;DHT22;27912;51.828;5.688;2024-03-02T12:34:22;12.90;99.90
42245;DHT22;27912;51.828;5.688;2024-03-02T12:36:49;12.90;99.90
42245;DHT22;27912;51.828;5.688;2024-03-02T12:39:21;12.90;99.90
42245;DHT22;27912;51.828;5.688;2024-03-02T12:41:51;13.00;99.90
42245;DHT22;27912;51.828;5.688;2024-03-02T12:44:19;13.00;99.90
42245;DHT22;27912;51.828;5.688;2024-03-02T12:46:46;13.00;99.90
42245;DHT22;27912;51.828;5.688;2024-03-02T12:49:14;13.00;99.90
42245;DHT22;27912;51.828;5.688;2024-03-02T12:51:46;12.90;99.90
42245;DHT22;27912;51.828;5.688;2024-03-02T12:54:17;12.90;99.90
42245;DHT22;27912;51.828;5.688;2024-03-02T12:56:43;13.00;99.90
42245;DHT22;27912;51.828;5.688;2024-03-02T12:59:18;13.10;99.90
42245;DHT22;27912;51.828;5.688;2024-03-02T13:01:54;13.10;99.90
42245;DHT22;27912;51.828;5.688;2024-03-02T13:04:24;13.20;99.90
42245;DHT22;27912;51.828;5.688;2024-03-02T13:06:51;13.30;99.90
42245;DHT22;27912;51.828;5.688;2024-03-02T13:09:17;13.30;99.90
42245;DHT22;27912;51.828;5.688;2024-03-02T13:11:43;13.50;99.90
42245;DHT22;27912;51.828;5.688;2024-03-02T13:14:10;13.60;99.90
42245;DHT22;27912;51.828;5.688;2024-03-02T13:16:40;13.70;99.90
42245;DHT22;27912;51.828;5.688;2024-03-02T13:19:09;13.80;99.90
42245;DHT22;27912;51.828;5.688;2024-03-02T13:21:35;13.80;99.90
42245;DHT22;27912;51.828;5.688;2024-03-02T13:24:00;13.80;99.90
42245;DHT22;27912;51.828;5.688;2024-03-02T13:26:26;13.90;99.90
42245;DHT22;27912;51.828;5.688;2024-03-02T13:28:53;13.90;99.90
42245;DHT22;27912;51.828;5.688;2024-03-02T13:31:18;13.90;99.20
42245;DHT22;27912;51.828;5.688;2024-03-02T13:33:44;13.90;99.10
42245;DHT22;27912;51.828;5.688;2024-03-02T13:36:09;13.90;99.40
42245;DHT22;27912;51.828;5.688;2024-03-02T13:38:35;14.00;98.90
42245;DHT22;27912;51.828;5.688;2024-03-02T13:41:01;14.00;98.60
42245;DHT22;27912;51.828;5.688;2024-03-02T13:43:27;14.10;98.30
42245;DHT22;27912;51.828;5.688;2024-03-02T13:45:53;14.10;98.60
42245;DHT22;27912;51.828;5.688;2024-03-02T13:48:19;14.20;97.70
42245;DHT22;27912;51.828;5.688;2024-03-02T13:50:45;14.20;97.20
42245;DHT22;27912;51.828;5.688;2024-03-02T13:53:11;14.20;97.30
42245;DHT22;27912;51.828;5.688;2024-03-02T13:55:37;14.20;97.00
42245;DHT22;27912;51.828;5.688;2024-03-02T13:58:03;14.30;97.00
42245;DHT22;27912;51.828;5.688;2024-03-02T14:00:29;14.30;96.20
42245;DHT22;27912;51.828;5.688;2024-03-02T14:02:55;14.30;96.00
42245;DHT22;27912;51.828;5.688;2024-03-02T14:05:21;14.30;95.90
42245;DHT22;27912;51.828;5.688;2024-03-02T14:07:46;14.40;95.80
42245;DHT22;27912;51.828;5.688;2024-03-02T14:10:12;14.40;95.80
42245;DHT22;27912;51.828;5.688;2024-03-02T14:12:38;14.50;95.60
42245;DHT22;27912;51.828;5.688;2024-03-02T14:15:04;14.40;94.80
42245;DHT22;27912;51.828;5.688;2024-03-02T14:17:30;14.30;95.30
42245;DHT22;27912;51.828;5.688;2024-03-02T14:19:58;14.20;95.40
42245;DHT22;27912;51.828;5.688;2024-03-02T14:22:25;14.10;95.40
42245;DHT22;27912;51.828;5.688;2024-03-02T14:24:50;14.10;95.80
42245;DHT22;27912;51.828;5.688;2024-03-02T14:27:16;14.00;95.60
42245;DHT22;27912;51.828;5.688;2024-03-02T14:29:45;14.00;95.70
42245;DHT22;27912;51.828;5.688;2024-03-02T14:32:10;14.00;95.60
42245;DHT22;27912;51.828;5.688;2024-03-02T14:34:36;13.90;95.40
42245;DHT22;27912;51.828;5.688;2024-03-02T14:37:02;14.00;95.80
42245;DHT22;27912;51.828;5.688;2024-03-02T14:39:28;14.10;95.80
42245;DHT22;27912;51.828;5.688;2024-03-02T14:41:54;14.30;95.70
42245;DHT22;27912;51.828;5.688;2024-03-02T14:44:20;14.30;95.70
42245;DHT22;27912;51.828;5.688;2024-03-02T14:46:49;14.30;95.90
42245;DHT22;27912;51.828;5.688;2024-03-02T14:49:15;14.40;96.00
42245;DHT22;27912;51.828;5.688;2024-03-02T14:51:41;14.40;95.90
42245;DHT22;27912;51.828;5.688;2024-03-02T14:54:07;14.40;95.50
42245;DHT22;27912;51.828;5.688;2024-03-02T14:56:32;14.40;95.80
42245;DHT22;27912;51.828;5.688;2024-03-02T14:58:58;14.40;95.50
42245;DHT22;27912;51.828;5.688;2024-03-02T15:01:24;14.30;95.10
42245;DHT22;27912;51.828;5.688;2024-03-02T15:03:51;14.20;95.20
42245;DHT22;27912;51.828;5.688;2024-03-02T15:06:17;14.00;95.40
42245;DHT22;27912;51.828;5.688;2024-03-02T15:08:43;13.90;95.80
42245;DHT22;27912;51.828;5.688;2024-03-02T15:11:11;13.80;96.10
42245;DHT22;27912;51.828;5.688;2024-03-02T15:13:37;13.80;96.30
42245;DHT22;27912;51.828;5.688;2024-03-02T15:16:03;13.80;96.40
42245;DHT22;27912;51.828;5.688;2024-03-02T15:18:29;13.70;96.30
42245;DHT22;27912;51.828;5.688;2024-03-02T15:20:54;13.70;96.40
42245;DHT22;27912;51.828;5.688;2024-03-02T15:23:20;13.60;97.00
42245;DHT22;27912;51.828;5.688;2024-03-02T15:25:46;13.70;97.10
42245;DHT22;27912;51.828;5.688;2024-03-02T15:28:11;13.70;97.50
42245;DHT22;27912;51.828;5.688;2024-03-02T15:30:37;13.70;97.60
42245;DHT22;27912;51.828;5.688;2024-03-02T15:33:03;13.60;97.40
42245;DHT22;27912;51.828;5.688;2024-03-02T15:35:29;13.50;97.60
42245;DHT22;27912;51.828;5.688;2024-03-02T15:37:54;13.50;97.90
42245;DHT22;27912;51.828;5.688;2024-03-02T15:40:20;13.40;98.10
42245;DHT22;27912;51.828;5.688;2024-03-02T15:42:46;13.40;98.40